sensor_id;sensor_type;location;lat;lon;timestamp;temperature;humidity
15947;DHT22;8072;52.554;7.966;2023-03-01T00:00:21;-0.70;99.90
15947;DHT22;8072;52.554;7.966;2023-03-01T00:02:47;-0.80;99.90
15947;DHT22;8072;52.554;7.966;2023-03-01T00:05:12;-0.80;99.90
15947;DHT22;8072;52.554;7.966;2023-03-01T00:07:38;-0.80;99.90
15947;DHT22;8072;52.554;7.966;2023-03-01T00:10:04;-0.80;99.90
15947;DHT22;8072;52.554;7.966;2023-03-01T00:12:31;-0.70;99.90
15947;DHT22;8072;52.554;7.966;2023-03-01T00:14:57;-0.80;99.90
15947;DHT22;8072;52.554;7.966;2023-03-01T00:17:22;-0.80;99.90
15947;DHT22;8072;52.554;7.966;2023-03-01T00:19:48;-0.80;99.90
15947;DHT22;8072;52.554;7.966;2023-03-01T00:22:14;-0.80;99.90
15947;DHT22;8072;52.554;7.966;2023-03-01T00:24:39;-0.80;99.90
15947;DHT22;8072;52.554;7.966;2023-03-01T00:27:05;-0.80;99.90
15947;DHT22;8072;52.554;7.966;2023-03-01T00:29:31;-0.80;99.90
15947;DHT22;8072;52.554;7.966;2023-03-01T00:31:57;-0.80;99.90
15947;DHT22;8072;52.554;7.966;2023-03-01T00:34:22;-0.80;99.90
15947;DHT22;8072;52.554;7.966;2023-03-01T00:36:48;-0.80;99.90
15947;DHT22;8072;52.554;7.966;2023-03-01T00:39:14;-0.80;99.90
15947;DHT22;8072;52.554;7.966;2023-03-01T00:41:41;-0.90;99.90
15947;DHT22;8072;52.554;7.966;2023-03-01T00:44:07;-0.90;99.90
15947;DHT22;8072;52.554;7.966;2023-03-01T00:46:33;-0.90;99.90
15947;DHT22;8072;52.554;7.966;2023-03-01T00:48:59;-1.00;99.90
15947;DHT22;8072;52.554;7.966;2023-03-01T00:51:28;-1.00;99.90
15947;DHT22;8072;52.554;7.966;2023-03-01T00:53:55;-1.00;99.90
15947;DHT22;8072;52.554;7.966;2023-03-01T00:56:22;-1.00;99.90
15947;DHT22;8072;52.554;7.966;2023-03-01T00:58:48;-1.00;99.90
15947;DHT22;8072;52.554;7.966;2023-03-01T01:01:16;-1.10;99.90
15947;DHT22;8072;52.554;7.966;2023-03-01T01:03:44;-1.10;99.90
15947;DHT22;8072;52.554;7.966;2023-03-01T01:06:17;-1.10;99.90
15947;DHT22;8072;52.554;7.966;2023-03-01T01:08:43;-1.10;99.90
15947;DHT22;8072;52.554;7.966;2023-03-01T01:11:10;-1.20;99.90
15947;DHT22;8072;52.554;7.966;2023-03-01T01:13:37;-1.20;99.90
15947;DHT22;8072;52.554;7.966;2023-03-01T01:16:04;-1.10;99.90
15947;DHT22;8072;52.554;7.966;2023-03-01T01:18:29;-1.10;99.90
15947;DHT22;8072;52.554;7.966;2023-03-01T01:20:55;-1.20;99.90
15947;DHT22;8072;52.554;7.966;2023-03-01T01:23:21;-1.20;99.90
15947;DHT22;8072;52.554;7.966;2023-03-01T01:25:47;-1.20;99.90
15947;DHT22;8072;52.554;7.966;2023-03-01T01:28:12;-1.20;99.90
15947;DHT22;8072;52.554;7.966;2023-03-01T01:30:38;-1.30;99.90
15947;DHT22;8072;52.554;7.966;2023-03-01T01:33:04;-1.30;99.90
15947;DHT22;8072;52.554;7.966;2023-03-01T01:35:30;-1.30;99.90
15947;DHT22;8072;52.554;7.966;2023-03-01T01:37:56;-1.40;99.90
15947;DHT22;8072;52.554;7.966;2023-03-01T01:40:21;-1.30;99.90
15947;DHT22;8072;52.554;7.966;2023-03-01T01:42:47;-1.40;99.90
15947;DHT22;8072;52.554;7.966;2023-03-01T01:48:10;-1.50;99.90
15947;DHT22;8072;52.554;7.966;2023-03-01T01:50:39;-1.50;99.90
15947;DHT22;8072;52.554;7.966;2023-03-01T01:53:17;-1.60;99.90
15947;DHT22;8072;52.554;7.966;2023-03-01T01:55:51;-1.60;99.90
15947;DHT22;8072;52.554;7.966;2023-03-01T01:58:19;-1.60;99.90
15947;DHT22;8072;52.554;7.966;2023-03-01T02:00:47;-1.60;99.90
15947;DHT22;8072;52.554;7.966;2023-03-01T02:03:33;-1.70;99.90
15947;DHT22;8072;52.554;7.966;2023-03-01T02:08:48;-1.70;99.90
15947;DHT22;8072;52.554;7.966;2023-03-01T02:11:15;-1.80;99.90
15947;DHT22;8072;52.554;7.966;2023-03-01T02:13:41;-1.80;99.90
15947;DHT22;8072;52.554;7.966;2023-03-01T02:16:13;-1.80;99.90
15947;DHT22;8072;52.554;7.966;2023-03-01T02:18:41;-1.80;99.90
15947;DHT22;8072;52.554;7.966;2023-03-01T02:27:04;-1.80;99.90
15947;DHT22;8072;52.554;7.966;2023-03-01T02:29:30;-1.90;99.90
15947;DHT22;8072;52.554;7.966;2023-03-01T02:31:58;-1.80;99.90
15947;DHT22;8072;52.554;7.966;2023-03-01T02:34:26;-1.90;99.90
15947;DHT22;8072;52.554;7.966;2023-03-01T02:37:05;-1.90;99.90
15947;DHT22;8072;52.554;7.966;2023-03-01T02:39:47;-1.80;99.90
15947;DHT22;8072;52.554;7.966;2023-03-01T02:42:18;-1.90;99.90
15947;DHT22;8072;52.554;7.966;2023-03-01T02:44:47;-1.90;99.90
15947;DHT22;8072;52.554;7.966;2023-03-01T02:47:14;-1.90;99.90
15947;DHT22;8072;52.554;7.966;2023-03-01T02:49:39;-1.90;99.90
15947;DHT22;8072;52.554;7.966;2023-03-01T02:54:50;-1.90;99.90
15947;DHT22;8072;52.554;7.966;2023-03-01T02:57:16;-1.90;99.90
15947;DHT22;8072;52.554;7.966;2023-03-01T02:59:43;-2.00;99.90
15947;DHT22;8072;52.554;7.966;2023-03-01T03:02:29;-2.00;99.90
15947;DHT22;8072;52.554;7.966;2023-03-01T03:07:35;-2.10;99.90
15947;DHT22;8072;52.554;7.966;2023-03-01T03:10:03;-2.10;99.90
15947;DHT22;8072;52.554;7.966;2023-03-01T03:12:29;-2.10;99.90
15947;DHT22;8072;52.554;7.966;2023-03-01T03:14:55;-2.10;99.90
15947;DHT22;8072;52.554;7.966;2023-03-01T03:17:21;-2.10;99.90
15947;DHT22;8072;52.554;7.966;2023-03-01T03:19:47;-2.10;99.90
15947;DHT22;8072;52.554;7.966;2023-03-01T03:22:13;-2.10;99.90
15947;DHT22;8072;52.554;7.966;2023-03-01T03:24:39;-2.10;99.90
15947;DHT22;8072;52.554;7.966;2023-03-01T03:27:06;-2.20;99.90
15947;DHT22;8072;52.554;7.966;2023-03-01T03:29:32;-2.20;99.90
15947;DHT22;8072;52.554;7.966;2023-03-01T03:31:58;-2.20;99.90
15947;DHT22;8072;52.554;7.966;2023-03-01T03:34:24;-2.20;99.90
15947;DHT22;8072;52.554;7.966;2023-03-01T03:36:54;-2.30;99.90
15947;DHT22;8072;52.554;7.966;2023-03-01T03:39:25;-2.30;99.90
15947;DHT22;8072;52.554;7.966;2023-03-01T03:41:53;-2.30;99.90
15947;DHT22;8072;52.554;7.966;2023-03-01T03:44:21;-2.40;99.90
15947;DHT22;8072;52.554;7.966;2023-03-01T03:46:46;-2.40;99.90
15947;DHT22;8072;52.554;7.966;2023-03-01T03:49:12;-2.40;99.90
15947;DHT22;8072;52.554;7.966;2023-03-01T03:51:38;-2.40;99.90
15947;DHT22;8072;52.554;7.966;2023-03-01T03:54:04;-2.40;99.90
15947;DHT22;8072;52.554;7.966;2023-03-01T03:56:29;-2.50;99.90
15947;DHT22;8072;52.554;7.966;2023-03-01T03:58:55;-2.50;99.90
15947;DHT22;8072;52.554;7.966;2023-03-01T04:01:21;-2.50;99.90
15947;DHT22;8072;52.554;7.966;2023-03-01T04:03:47;-2.50;99.90
15947;DHT22;8072;52.554;7.966;2023-03-01T04:06:14;-2.50;99.90
15947;DHT22;8072;52.554;7.966;2023-03-01T04:08:40;-2.50;99.90
15947;DHT22;8072;52.554;7.966;2023-03-01T04:11:06;-2.60;99.90
15947;DHT22;8072;52.554;7.966;2023-03-01T04:13:52;-2.50;99.90
15947;DHT22;8072;52.554;7.966;2023-03-01T04:16:18;-2.60;99.90
15947;DHT22;8072;52.554;7.966;2023-03-01T04:18:44;-2.50;99.90
15947;DHT22;8072;52.554;7.966;2023-03-01T04:21:11;-2.50;99.90
15947;DHT22;8072;52.554;7.966;2023-03-01T04:23:37;-2.50;99.90
15947;DHT22;8072;52.554;7.966;2023-03-01T04:26:03;-2.50;99.90
15947;DHT22;8072;52.554;7.966;2023-03-01T04:28:34;-2.50;99.90
15947;DHT22;8072;52.554;7.966;2023-03-01T04:31:09;-2.50;99.90
15947;DHT22;8072;52.554;7.966;2023-03-01T04:33:43;-2.50;99.90
15947;DHT22;8072;52.554;7.966;2023-03-01T04:36:10;-2.50;99.90
15947;DHT22;8072;52.554;7.966;2023-03-01T04:38:37;-2.50;99.90
15947;DHT22;8072;52.554;7.966;2023-03-01T04:41:07;-2.60;99.90
15947;DHT22;8072;52.554;7.966;2023-03-01T04:43:34;-2.60;99.90
15947;DHT22;8072;52.554;7.966;2023-03-01T04:46:05;-2.50;99.90
15947;DHT22;8072;52.554;7.966;2023-03-01T04:48:32;-2.60;99.90
15947;DHT22;8072;52.554;7.966;2023-03-01T04:50:59;-2.60;99.90
15947;DHT22;8072;52.554;7.966;2023-03-01T04:53:26;-2.60;99.90
15947;DHT22;8072;52.554;7.966;2023-03-01T04:55:53;-2.60;99.90
15947;DHT22;8072;52.554;7.966;2023-03-01T04:58:19;-2.60;99.90
15947;DHT22;8072;52.554;7.966;2023-03-01T05:00:44;-2.70;99.90
15947;DHT22;8072;52.554;7.966;2023-03-01T05:03:10;-2.70;99.90
15947;DHT22;8072;52.554;7.966;2023-03-01T05:05:37;-2.70;99.90
15947;DHT22;8072;52.554;7.966;2023-03-01T05:08:06;-2.80;99.90
15947;DHT22;8072;52.554;7.966;2023-03-01T05:10:35;-2.80;99.90
15947;DHT22;8072;52.554;7.966;2023-03-01T05:13:02;-2.80;99.90
15947;DHT22;8072;52.554;7.966;2023-03-01T05:15:29;-2.80;99.90
15947;DHT22;8072;52.554;7.966;2023-03-01T05:17:57;-2.80;99.90
15947;DHT22;8072;52.554;7.966;2023-03-01T05:20:28;-2.90;99.90
15947;DHT22;8072;52.554;7.966;2023-03-01T05:22:59;-2.90;99.90
15947;DHT22;8072;52.554;7.966;2023-03-01T05:25:26;-2.90;99.90
15947;DHT22;8072;52.554;7.966;2023-03-01T05:27:51;-2.90;99.90
15947;DHT22;8072;52.554;7.966;2023-03-01T05:30:18;-2.90;99.90
15947;DHT22;8072;52.554;7.966;2023-03-01T05:32:48;-2.90;99.90
15947;DHT22;8072;52.554;7.966;2023-03-01T05:35:16;-2.90;99.90
15947;DHT22;8072;52.554;7.966;2023-03-01T05:37:47;-2.90;99.90
15947;DHT22;8072;52.554;7.966;2023-03-01T05:40:17;-2.90;99.90
15947;DHT22;8072;52.554;7.966;2023-03-01T05:42:45;-2.90;99.90
15947;DHT22;8072;52.554;7.966;2023-03-01T05:45:12;-3.00;99.90
15947;DHT22;8072;52.554;7.966;2023-03-01T05:47:39;-2.90;99.90
15947;DHT22;8072;52.554;7.966;2023-03-01T05:50:14;-2.90;99.90
15947;DHT22;8072;52.554;7.966;2023-03-01T05:52:44;-2.90;99.90
15947;DHT22;8072;52.554;7.966;2023-03-01T05:55:10;-2.90;99.90
15947;DHT22;8072;52.554;7.966;2023-03-01T05:57:36;-3.00;99.90
15947;DHT22;8072;52.554;7.966;2023-03-01T06:00:02;-3.00;99.90
15947;DHT22;8072;52.554;7.966;2023-03-01T06:02:28;-3.00;99.90
15947;DHT22;8072;52.554;7.966;2023-03-01T06:04:55;-3.00;99.90
15947;DHT22;8072;52.554;7.966;2023-03-01T06:07:21;-3.00;99.90
15947;DHT22;8072;52.554;7.966;2023-03-01T06:09:46;-3.00;99.90
15947;DHT22;8072;52.554;7.966;2023-03-01T06:12:13;-3.00;99.90
15947;DHT22;8072;52.554;7.966;2023-03-01T06:14:38;-3.10;99.90
15947;DHT22;8072;52.554;7.966;2023-03-01T06:17:04;-3.10;99.90
15947;DHT22;8072;52.554;7.966;2023-03-01T06:19:30;-3.10;99.90
15947;DHT22;8072;52.554;7.966;2023-03-01T06:21:55;-3.10;99.90
15947;DHT22;8072;52.554;7.966;2023-03-01T06:24:21;-3.10;99.90
15947;DHT22;8072;52.554;7.966;2023-03-01T06:26:47;-3.10;99.90
15947;DHT22;8072;52.554;7.966;2023-03-01T06:29:12;-3.10;99.90
15947;DHT22;8072;52.554;7.966;2023-03-01T06:31:40;-3.10;99.90
15947;DHT22;8072;52.554;7.966;2023-03-01T06:34:05;-3.10;99.90
15947;DHT22;8072;52.554;7.966;2023-03-01T06:36:31;-3.10;99.90
15947;DHT22;8072;52.554;7.966;2023-03-01T06:38:57;-3.00;99.90
15947;DHT22;8072;52.554;7.966;2023-03-01T06:41:22;-3.00;99.90
15947;DHT22;8072;52.554;7.966;2023-03-01T06:43:48;-3.00;99.90
15947;DHT22;8072;52.554;7.966;2023-03-01T06:46:14;-3.00;99.90
15947;DHT22;8072;52.554;7.966;2023-03-01T06:48:39;-3.10;99.90
15947;DHT22;8072;52.554;7.966;2023-03-01T06:51:05;-3.10;99.90
15947;DHT22;8072;52.554;7.966;2023-03-01T06:53:31;-3.00;99.90
15947;DHT22;8072;52.554;7.966;2023-03-01T06:55:57;-3.00;99.90
15947;DHT22;8072;52.554;7.966;2023-03-01T06:58:25;-3.00;99.90
15947;DHT22;8072;52.554;7.966;2023-03-01T07:00:51;-3.00;99.90
15947;DHT22;8072;52.554;7.966;2023-03-01T07:03:17;-3.00;99.90
15947;DHT22;8072;52.554;7.966;2023-03-01T07:05:42;-3.00;99.90
15947;DHT22;8072;52.554;7.966;2023-03-01T07:08:10;-3.00;99.90
15947;DHT22;8072;52.554;7.966;2023-03-01T07:10:36;-3.00;99.90
15947;DHT22;8072;52.554;7.966;2023-03-01T07:13:01;-3.00;99.90
15947;DHT22;8072;52.554;7.966;2023-03-01T07:15:28;-2.90;99.90
15947;DHT22;8072;52.554;7.966;2023-03-01T07:17:53;-2.90;99.90
15947;DHT22;8072;52.554;7.966;2023-03-01T07:20:19;-2.90;99.90
15947;DHT22;8072;52.554;7.966;2023-03-01T07:22:51;-2.90;99.90
15947;DHT22;8072;52.554;7.966;2023-03-01T07:25:17;-2.80;99.90
15947;DHT22;8072;52.554;7.966;2023-03-01T07:27:43;-2.80;99.90
15947;DHT22;8072;52.554;7.966;2023-03-01T07:30:10;-2.70;99.90
15947;DHT22;8072;52.554;7.966;2023-03-01T07:32:36;-2.70;99.90
15947;DHT22;8072;52.554;7.966;2023-03-01T07:35:01;-2.60;99.90
15947;DHT22;8072;52.554;7.966;2023-03-01T07:37:27;-2.60;99.90
15947;DHT22;8072;52.554;7.966;2023-03-01T07:39:53;-2.50;99.90
15947;DHT22;8072;52.554;7.966;2023-03-01T07:42:18;-2.40;99.90
15947;DHT22;8072;52.554;7.966;2023-03-01T07:44:44;-2.30;99.90
15947;DHT22;8072;52.554;7.966;2023-03-01T07:47:10;-2.30;99.90
15947;DHT22;8072;52.554;7.966;2023-03-01T07:49:35;-2.20;99.90
15947;DHT22;8072;52.554;7.966;2023-03-01T07:52:01;-2.10;99.90
15947;DHT22;8072;52.554;7.966;2023-03-01T07:54:27;-2.00;99.90
15947;DHT22;8072;52.554;7.966;2023-03-01T07:56:53;-2.00;99.90
15947;DHT22;8072;52.554;7.966;2023-03-01T07:59:20;-1.90;99.90
15947;DHT22;8072;52.554;7.966;2023-03-01T08:01:45;-1.80;99.90
15947;DHT22;8072;52.554;7.966;2023-03-01T08:04:11;-1.70;99.90
15947;DHT22;8072;52.554;7.966;2023-03-01T08:06:37;-1.60;99.90
15947;DHT22;8072;52.554;7.966;2023-03-01T08:09:03;-1.40;99.90
15947;DHT22;8072;52.554;7.966;2023-03-01T08:11:29;-1.30;99.90
15947;DHT22;8072;52.554;7.966;2023-03-01T08:13:54;-1.30;99.90
15947;DHT22;8072;52.554;7.966;2023-03-01T08:16:20;-1.20;99.90
15947;DHT22;8072;52.554;7.966;2023-03-01T08:18:46;-1.10;99.90
15947;DHT22;8072;52.554;7.966;2023-03-01T08:21:16;-1.10;99.90
15947;DHT22;8072;52.554;7.966;2023-03-01T08:23:43;-1.00;99.90
15947;DHT22;8072;52.554;7.966;2023-03-01T08:26:16;-0.90;99.90
15947;DHT22;8072;52.554;7.966;2023-03-01T08:28:42;-0.80;99.90
15947;DHT22;8072;52.554;7.966;2023-03-01T08:31:49;-0.70;99.90
15947;DHT22;8072;52.554;7.966;2023-03-01T08:34:12;-0.70;99.90
15947;DHT22;8072;52.554;7.966;2023-03-01T08:36:40;-0.60;99.90
15947;DHT22;8072;52.554;7.966;2023-03-01T08:39:07;-0.50;99.90
15947;DHT22;8072;52.554;7.966;2023-03-01T08:41:33;-0.40;99.90
15947;DHT22;8072;52.554;7.966;2023-03-01T08:43:59;-0.30;99.90
15947;DHT22;8072;52.554;7.966;2023-03-01T08:46:30;-0.20;99.90
15947;DHT22;8072;52.554;7.966;2023-03-01T08:48:56;-0.10;99.90
15947;DHT22;8072;52.554;7.966;2023-03-01T08:51:23;0.00;99.90
15947;DHT22;8072;52.554;7.966;2023-03-01T08:53:49;0.10;99.90
15947;DHT22;8072;52.554;7.966;2023-03-01T08:56:15;0.20;99.90
15947;DHT22;8072;52.554;7.966;2023-03-01T08:58:45;0.30;99.90
15947;DHT22;8072;52.554;7.966;2023-03-01T09:01:13;0.40;99.90
15947;DHT22;8072;52.554;7.966;2023-03-01T09:03:39;0.60;99.90
15947;DHT22;8072;52.554;7.966;2023-03-01T09:06:06;0.70;99.90
15947;DHT22;8072;52.554;7.966;2023-03-01T09:08:37;0.80;99.90
15947;DHT22;8072;52.554;7.966;2023-03-01T09:11:08;0.80;99.90
15947;DHT22;8072;52.554;7.966;2023-03-01T09:13:34;0.90;99.90
15947;DHT22;8072;52.554;7.966;2023-03-01T09:16:02;1.00;99.90
15947;DHT22;8072;52.554;7.966;2023-03-01T09:18:29;1.10;99.90
15947;DHT22;8072;52.554;7.966;2023-03-01T09:21:11;1.20;99.90
15947;DHT22;8072;52.554;7.966;2023-03-01T09:23:40;1.30;99.90
15947;DHT22;8072;52.554;7.966;2023-03-01T09:26:28;1.40;99.90
15947;DHT22;8072;52.554;7.966;2023-03-01T09:28:55;1.40;99.90
15947;DHT22;8072;52.554;7.966;2023-03-01T09:31:22;1.50;99.90
15947;DHT22;8072;52.554;7.966;2023-03-01T09:33:50;1.70;99.90
15947;DHT22;8072;52.554;7.966;2023-03-01T09:36:18;1.80;99.90
15947;DHT22;8072;52.554;7.966;2023-03-01T09:38:44;1.80;99.90
15947;DHT22;8072;52.554;7.966;2023-03-01T09:46:48;2.20;99.90
15947;DHT22;8072;52.554;7.966;2023-03-01T09:49:30;2.30;99.90
15947;DHT22;8072;52.554;7.966;2023-03-01T09:52:04;2.40;99.90
15947;DHT22;8072;52.554;7.966;2023-03-01T09:54:35;2.50;99.90
15947;DHT22;8072;52.554;7.966;2023-03-01T10:02:49;2.80;99.90
15947;DHT22;8072;52.554;7.966;2023-03-01T10:11:02;3.10;99.90
15947;DHT22;8072;52.554;7.966;2023-03-01T10:16:43;3.30;99.90
15947;DHT22;8072;52.554;7.966;2023-03-01T10:19:24;3.40;99.90
15947;DHT22;8072;52.554;7.966;2023-03-01T10:21:53;3.50;99.90
15947;DHT22;8072;52.554;7.966;2023-03-01T10:24:20;3.60;99.90
15947;DHT22;8072;52.554;7.966;2023-03-01T10:26:58;3.70;99.90
15947;DHT22;8072;52.554;7.966;2023-03-01T10:29:39;3.80;99.90
15947;DHT22;8072;52.554;7.966;2023-03-01T10:32:05;3.90;99.90
15947;DHT22;8072;52.554;7.966;2023-03-01T10:34:37;4.00;99.90
15947;DHT22;8072;52.554;7.966;2023-03-01T10:37:10;4.10;99.90
15947;DHT22;8072;52.554;7.966;2023-03-01T10:39:36;4.20;99.90
15947;DHT22;8072;52.554;7.966;2023-03-01T10:42:05;4.40;99.90
15947;DHT22;8072;52.554;7.966;2023-03-01T10:44:47;4.50;99.90
15947;DHT22;8072;52.554;7.966;2023-03-01T10:47:17;4.60;99.90
15947;DHT22;8072;52.554;7.966;2023-03-01T10:50:04;4.70;99.90
15947;DHT22;8072;52.554;7.966;2023-03-01T10:52:36;4.80;99.90
15947;DHT22;8072;52.554;7.966;2023-03-01T10:57:49;4.90;99.90
15947;DHT22;8072;52.554;7.966;2023-03-01T11:00:23;5.10;99.90
15947;DHT22;8072;52.554;7.966;2023-03-01T11:03:11;5.20;99.90
15947;DHT22;8072;52.554;7.966;2023-03-01T11:08:43;5.40;99.90
15947;DHT22;8072;52.554;7.966;2023-03-01T11:14:07;5.70;99.90
15947;DHT22;8072;52.554;7.966;2023-03-01T11:16:34;5.80;99.90
15947;DHT22;8072;52.554;7.966;2023-03-01T11:24:12;6.10;99.90
15947;DHT22;8072;52.554;7.966;2023-03-01T11:26:42;6.20;99.90
15947;DHT22;8072;52.554;7.966;2023-03-01T11:29:21;6.30;99.90
15947;DHT22;8072;52.554;7.966;2023-03-01T11:31:51;6.40;99.90
15947;DHT22;8072;52.554;7.966;2023-03-01T11:34:28;6.50;99.90
15947;DHT22;8072;52.554;7.966;2023-03-01T11:37:01;6.60;99.90
15947;DHT22;8072;52.554;7.966;2023-03-01T11:39:53;6.70;99.90
15947;DHT22;8072;52.554;7.966;2023-03-01T11:42:38;6.80;99.90
15947;DHT22;8072;52.554;7.966;2023-03-01T11:45:10;7.10;99.90
15947;DHT22;8072;52.554;7.966;2023-03-01T11:48:00;7.40;99.90
15947;DHT22;8072;52.554;7.966;2023-03-01T11:50:42;7.50;99.90
15947;DHT22;8072;52.554;7.966;2023-03-01T11:53:27;7.60;99.90
15947;DHT22;8072;52.554;7.966;2023-03-01T12:09:59;8.70;99.90
15947;DHT22;8072;52.554;7.966;2023-03-01T12:26:44;9.40;99.90
15947;DHT22;8072;52.554;7.966;2023-03-01T12:29:29;9.40;99.90
15947;DHT22;8072;52.554;7.966;2023-03-01T12:32:06;9.60;99.90
15947;DHT22;8072;52.554;7.966;2023-03-01T12:40:11;9.70;99.90
15947;DHT22;8072;52.554;7.966;2023-03-01T12:45:40;9.90;99.90
15947;DHT22;8072;52.554;7.966;2023-03-01T12:51:04;10.20;99.90
15947;DHT22;8072;52.554;7.966;2023-03-01T12:53:35;10.20;99.90
15947;DHT22;8072;52.554;7.966;2023-03-01T12:56:13;10.30;99.90
15947;DHT22;8072;52.554;7.966;2023-03-01T13:01:35;10.60;99.90
15947;DHT22;8072;52.554;7.966;2023-03-01T13:04:20;10.80;99.90
15947;DHT22;8072;52.554;7.966;2023-03-01T13:15:29;10.30;99.90
15947;DHT22;8072;52.554;7.966;2023-03-01T13:17:58;10.20;99.90
15947;DHT22;8072;52.554;7.966;2023-03-01T13:26:07;10.70;99.90
15947;DHT22;8072;52.554;7.966;2023-03-01T13:28:38;10.70;99.90
15947;DHT22;8072;52.554;7.966;2023-03-01T13:31:08;10.80;99.90
15947;DHT22;8072;52.554;7.966;2023-03-01T13:33:47;10.70;99.90
15947;DHT22;8072;52.554;7.966;2023-03-01T13:44:32;10.90;99.90
15947;DHT22;8072;52.554;7.966;2023-03-01T13:49:55;10.70;99.90
15947;DHT22;8072;52.554;7.966;2023-03-01T13:52:45;10.80;99.90
15947;DHT22;8072;52.554;7.966;2023-03-01T13:57:47;11.00;99.90
15947;DHT22;8072;52.554;7.966;2023-03-01T14:03:16;10.80;99.90
15947;DHT22;8072;52.554;7.966;2023-03-01T14:05:56;10.90;99.90
15947;DHT22;8072;52.554;7.966;2023-03-01T14:08:25;10.90;99.90
15947;DHT22;8072;52.554;7.966;2023-03-01T14:11:04;11.00;99.90
15947;DHT22;8072;52.554;7.966;2023-03-01T14:19:23;11.30;99.90
15947;DHT22;8072;52.554;7.966;2023-03-01T14:22:24;11.20;99.90
15947;DHT22;8072;52.554;7.966;2023-03-01T14:25:05;11.30;99.90
15947;DHT22;8072;52.554;7.966;2023-03-01T14:27:39;11.40;99.90
15947;DHT22;8072;52.554;7.966;2023-03-01T14:30:35;11.30;99.90
15947;DHT22;8072;52.554;7.966;2023-03-01T14:33:05;11.20;99.90
15947;DHT22;8072;52.554;7.966;2023-03-01T14:35:35;11.00;99.90
15947;DHT22;8072;52.554;7.966;2023-03-01T14:38:02;11.00;99.90
15947;DHT22;8072;52.554;7.966;2023-03-01T14:40:36;10.80;99.90
15947;DHT22;8072;52.554;7.966;2023-03-01T14:43:09;10.60;99.90
15947;DHT22;8072;52.554;7.966;2023-03-01T14:45:36;10.50;99.90
15947;DHT22;8072;52.554;7.966;2023-03-01T14:48:04;10.40;99.90
15947;DHT22;8072;52.554;7.966;2023-03-01T14:50:34;10.30;99.90
15947;DHT22;8072;52.554;7.966;2023-03-01T14:53:03;10.40;99.90
15947;DHT22;8072;52.554;7.966;2023-03-01T14:55:33;10.40;99.90
15947;DHT22;8072;52.554;7.966;2023-03-01T14:58:03;10.40;99.90
15947;DHT22;8072;52.554;7.966;2023-03-01T15:00:30;10.40;99.90
15947;DHT22;8072;52.554;7.966;2023-03-01T15:03:00;10.20;99.90
15947;DHT22;8072;52.554;7.966;2023-03-01T15:05:33;10.10;99.90
15947;DHT22;8072;52.554;7.966;2023-03-01T15:08:01;10.10;99.90
15947;DHT22;8072;52.554;7.966;2023-03-01T15:10:30;10.00;99.90
15947;DHT22;8072;52.554;7.966;2023-03-01T15:13:09;9.90;99.90
15947;DHT22;8072;52.554;7.966;2023-03-01T15:15:38;9.80;99.90
15947;DHT22;8072;52.554;7.966;2023-03-01T15:18:32;9.80;99.90
15947;DHT22;8072;52.554;7.966;2023-03-01T15:21:31;9.70;99.90
15947;DHT22;8072;52.554;7.966;2023-03-01T15:27:12;9.70;99.90
15947;DHT22;8072;52.554;7.966;2023-03-01T15:29:34;9.70;99.90
15947;DHT22;8072;52.554;7.966;2023-03-01T15:32:29;9.60;99.90
15947;DHT22;8072;52.554;7.966;2023-03-01T15:37:49;9.40;99.90
15947;DHT22;8072;52.554;7.966;2023-03-01T15:42:43;9.10;99.90
15947;DHT22;8072;52.554;7.966;2023-03-01T15:47:47;8.80;99.90
15947;DHT22;8072;52.554;7.966;2023-03-01T15:50:22;8.70;99.90
15947;DHT22;8072;52.554;7.966;2023-03-01T15:52:48;8.50;99.90
15947;DHT22;8072;52.554;7.966;2023-03-01T15:55:26;8.40;99.90
15947;DHT22;8072;52.554;7.966;2023-03-01T15:58:04;8.20;99.90
15947;DHT22;8072;52.554;7.966;2023-03-01T16:00:32;8.10;99.90
15947;DHT22;8072;52.554;7.966;2023-03-01T16:02:58;8.00;99.90
15947;DHT22;8072;52.554;7.966;2023-03-01T16:05:27;7.90;99.90
15947;DHT22;8072;52.554;7.966;2023-03-01T16:07:53;7.80;99.90
15947;DHT22;8072;52.554;7.966;2023-03-01T16:10:19;7.80;99.90
15947;DHT22;8072;52.554;7.966;2023-03-01T16:12:45;7.80;99.90
15947;DHT22;8072;52.554;7.966;2023-03-01T16:15:19;7.70;99.90
15947;DHT22;8072;52.554;7.966;2023-03-01T16:17:45;7.70;99.90
15947;DHT22;8072;52.554;7.966;2023-03-01T16:20:12;7.60;99.90
15947;DHT22;8072;52.554;7.966;2023-03-01T16:22:38;7.60;99.90
15947;DHT22;8072;52.554;7.966;2023-03-01T16:25:04;7.50;99.90
15947;DHT22;8072;52.554;7.966;2023-03-01T16:27:29;7.50;99.90
15947;DHT22;8072;52.554;7.966;2023-03-01T16:29:55;7.40;99.90
15947;DHT22;8072;52.554;7.966;2023-03-01T16:32:21;7.40;99.90
15947;DHT22;8072;52.554;7.966;2023-03-01T16:34:46;7.40;99.90
15947;DHT22;8072;52.554;7.966;2023-03-01T16:37:15;7.40;99.90
15947;DHT22;8072;52.554;7.966;2023-03-01T16:39:41;7.30;99.90
15947;DHT22;8072;52.554;7.966;2023-03-01T16:42:07;7.20;99.90
15947;DHT22;8072;52.554;7.966;2023-03-01T16:44:33;7.10;99.90
15947;DHT22;8072;52.554;7.966;2023-03-01T16:47:00;7.10;99.90
15947;DHT22;8072;52.554;7.966;2023-03-01T16:49:25;7.10;99.90
15947;DHT22;8072;52.554;7.966;2023-03-01T16:51:53;7.00;99.90
15947;DHT22;8072;52.554;7.966;2023-03-01T16:54:19;7.00;99.90
15947;DHT22;8072;52.554;7.966;2023-03-01T16:56:45;7.00;99.90
15947;DHT22;8072;52.554;7.966;2023-03-01T16:59:11;7.00;99.90
15947;DHT22;8072;52.554;7.966;2023-03-01T17:01:36;7.00;99.90
15947;DHT22;8072;52.554;7.966;2023-03-01T17:04:06;6.90;99.90
15947;DHT22;8072;52.554;7.966;2023-03-01T17:06:32;6.90;99.90
15947;DHT22;8072;52.554;7.966;2023-03-01T17:08:58;6.90;99.90
15947;DHT22;8072;52.554;7.966;2023-03-01T17:11:25;6.80;99.90
15947;DHT22;8072;52.554;7.966;2023-03-01T17:13:50;6.80;99.90
15947;DHT22;8072;52.554;7.966;2023-03-01T17:16:19;6.80;99.90
15947;DHT22;8072;52.554;7.966;2023-03-01T17:18:45;6.70;99.90
15947;DHT22;8072;52.554;7.966;2023-03-01T17:21:14;6.70;99.90
15947;DHT22;8072;52.554;7.966;2023-03-01T17:23:42;6.70;99.90
15947;DHT22;8072;52.554;7.966;2023-03-01T17:26:08;6.60;99.90
15947;DHT22;8072;52.554;7.966;2023-03-01T17:28:36;6.50;99.90
15947;DHT22;8072;52.554;7.966;2023-03-01T17:31:04;6.50;99.90
15947;DHT22;8072;52.554;7.966;2023-03-01T17:33:30;6.40;99.90
15947;DHT22;8072;52.554;7.966;2023-03-01T17:35:56;6.30;99.90
15947;DHT22;8072;52.554;7.966;2023-03-01T17:38:22;6.30;99.90
15947;DHT22;8072;52.554;7.966;2023-03-01T17:40:48;6.20;99.90
15947;DHT22;8072;52.554;7.966;2023-03-01T17:43:16;6.10;99.90
15947;DHT22;8072;52.554;7.966;2023-03-01T17:45:43;6.10;99.90
15947;DHT22;8072;52.554;7.966;2023-03-01T17:48:14;6.00;99.90
15947;DHT22;8072;52.554;7.966;2023-03-01T17:50:40;5.90;99.90
15947;DHT22;8072;52.554;7.966;2023-03-01T17:53:07;5.90;99.90
15947;DHT22;8072;52.554;7.966;2023-03-01T17:55:44;5.90;99.90
15947;DHT22;8072;52.554;7.966;2023-03-01T17:58:12;5.80;99.90
15947;DHT22;8072;52.554;7.966;2023-03-01T18:00:39;5.80;99.90
15947;DHT22;8072;52.554;7.966;2023-03-01T18:03:05;5.80;99.90
15947;DHT22;8072;52.554;7.966;2023-03-01T18:05:32;5.70;99.90
15947;DHT22;8072;52.554;7.966;2023-03-01T18:07:58;5.70;99.90
15947;DHT22;8072;52.554;7.966;2023-03-01T18:10:24;5.60;99.90
15947;DHT22;8072;52.554;7.966;2023-03-01T18:12:51;5.60;99.90
15947;DHT22;8072;52.554;7.966;2023-03-01T18:15:17;5.60;99.90
15947;DHT22;8072;52.554;7.966;2023-03-01T18:17:42;5.50;99.90
15947;DHT22;8072;52.554;7.966;2023-03-01T18:20:09;5.40;99.90
15947;DHT22;8072;52.554;7.966;2023-03-01T18:22:35;5.40;99.90
15947;DHT22;8072;52.554;7.966;2023-03-01T18:25:03;5.30;99.90